sensor_id;sensor_type;location;lat;lon;timestamp;P1;durP1;ratioP1;P2;durP2;ratioP2
21198;SDS011;10757;51.038;3.712;2022-12-18T00:01:41;105.53;;;47.65;;
21198;SDS011;10757;51.038;3.712;2022-12-18T00:04:07;95.55;;;47.67;;
21198;SDS011;10757;51.038;3.712;2022-12-18T00:06:48;82.10;;;40.35;;
21198;SDS011;10757;51.038;3.712;2022-12-18T00:09:14;100.28;;;47.13;;
21198;SDS011;10757;51.038;3.712;2022-12-18T00:11:40;99.20;;;44.10;;
21198;SDS011;10757;51.038;3.712;2022-12-18T00:14:07;93.78;;;43.35;;
21198;SDS011;10757;51.038;3.712;2022-12-18T00:16:34;101.38;;;40.90;;
21198;SDS011;10757;51.038;3.712;2022-12-18T00:19:01;95.32;;;43.08;;
21198;SDS011;10757;51.038;3.712;2022-12-18T00:21:29;105.90;;;43.53;;
21198;SDS011;10757;51.038;3.712;2022-12-18T00:23:56;95.90;;;42.10;;
21198;SDS011;10757;51.038;3.712;2022-12-18T00:26:24;99.25;;;41.95;;
21198;SDS011;10757;51.038;3.712;2022-12-18T00:28:52;98.32;;;40.83;;
21198;SDS011;10757;51.038;3.712;2022-12-18T00:31:19;103.78;;;45.45;;
21198;SDS011;10757;51.038;3.712;2022-12-18T00:33:47;64.30;;;31.08;;
21198;SDS011;10757;51.038;3.712;2022-12-18T00:36:14;95.18;;;37.03;;
21198;SDS011;10757;51.038;3.712;2022-12-18T00:38:45;84.50;;;34.33;;
21198;SDS011;10757;51.038;3.712;2022-12-18T00:41:12;84.50;;;36.17;;
21198;SDS011;10757;51.038;3.712;2022-12-18T00:43:59;90.75;;;37.38;;
21198;SDS011;10757;51.038;3.712;2022-12-18T00:46:25;86.45;;;34.63;;
21198;SDS011;10757;51.038;3.712;2022-12-18T00:51:22;85.65;;;36.17;;
21198;SDS011;10757;51.038;3.712;2022-12-18T00:53:48;75.03;;;31.73;;
21198;SDS011;10757;51.038;3.712;2022-12-18T00:56:14;81.18;;;34.30;;
21198;SDS011;10757;51.038;3.712;2022-12-18T00:58:40;80.28;;;30.02;;
21198;SDS011;10757;51.038;3.712;2022-12-18T01:01:06;80.22;;;33.22;;
21198;SDS011;10757;51.038;3.712;2022-12-18T01:03:36;72.20;;;31.33;;
21198;SDS011;10757;51.038;3.712;2022-12-18T01:06:06;82.00;;;36.67;;
21198;SDS011;10757;51.038;3.712;2022-12-18T01:08:34;81.03;;;35.90;;
21198;SDS011;10757;51.038;3.712;2022-12-18T01:11:00;83.55;;;34.53;;
21198;SDS011;10757;51.038;3.712;2022-12-18T01:13:32;83.43;;;34.72;;
21198;SDS011;10757;51.038;3.712;2022-12-18T01:15:58;73.60;;;32.33;;
21198;SDS011;10757;51.038;3.712;2022-12-18T01:18:23;73.30;;;34.13;;
21198;SDS011;10757;51.038;3.712;2022-12-18T01:20:50;71.95;;;32.88;;
21198;SDS011;10757;51.038;3.712;2022-12-18T01:23:15;72.10;;;31.90;;
21198;SDS011;10757;51.038;3.712;2022-12-18T01:25:41;76.20;;;33.25;;
21198;SDS011;10757;51.038;3.712;2022-12-18T01:28:06;71.63;;;30.30;;
21198;SDS011;10757;51.038;3.712;2022-12-18T01:30:32;87.57;;;37.95;;
21198;SDS011;10757;51.038;3.712;2022-12-18T01:32:58;77.93;;;34.03;;
21198;SDS011;10757;51.038;3.712;2022-12-18T01:35:24;77.85;;;32.40;;
21198;SDS011;10757;51.038;3.712;2022-12-18T01:37:53;70.85;;;31.08;;
21198;SDS011;10757;51.038;3.712;2022-12-18T01:40:20;71.75;;;31.13;;
21198;SDS011;10757;51.038;3.712;2022-12-18T01:42:50;68.70;;;32.05;;
21198;SDS011;10757;51.038;3.712;2022-12-18T01:45:29;61.42;;;28.10;;
21198;SDS011;10757;51.038;3.712;2022-12-18T01:47:57;72.60;;;29.00;;
21198;SDS011;10757;51.038;3.712;2022-12-18T01:53:03;66.65;;;27.40;;
21198;SDS011;10757;51.038;3.712;2022-12-18T01:55:58;71.47;;;29.67;;
21198;SDS011;10757;51.038;3.712;2022-12-18T01:58:46;63.72;;;30.23;;
21198;SDS011;10757;51.038;3.712;2022-12-18T02:01:15;65.32;;;29.27;;
21198;SDS011;10757;51.038;3.712;2022-12-18T02:03:41;71.75;;;29.00;;
21198;SDS011;10757;51.038;3.712;2022-12-18T02:08:53;72.53;;;29.27;;
21198;SDS011;10757;51.038;3.712;2022-12-18T02:27:47;60.97;;;24.05;;
21198;SDS011;10757;51.038;3.712;2022-12-18T02:30:15;58.15;;;24.00;;
21198;SDS011;10757;51.038;3.712;2022-12-18T02:32:43;66.82;;;27.42;;
21198;SDS011;10757;51.038;3.712;2022-12-18T02:35:15;60.55;;;25.10;;
21198;SDS011;10757;51.038;3.712;2022-12-18T02:37:45;60.95;;;27.38;;
21198;SDS011;10757;51.038;3.712;2022-12-18T02:40:13;68.75;;;27.90;;
21198;SDS011;10757;51.038;3.712;2022-12-18T02:42:40;56.30;;;25.52;;
21198;SDS011;10757;51.038;3.712;2022-12-18T02:45:06;65.40;;;25.40;;
21198;SDS011;10757;51.038;3.712;2022-12-18T02:47:33;58.22;;;24.55;;
21198;SDS011;10757;51.038;3.712;2022-12-18T03:00:53;55.20;;;24.17;;
21198;SDS011;10757;51.038;3.712;2022-12-18T03:03:57;50.90;;;22.60;;
21198;SDS011;10757;51.038;3.712;2022-12-18T03:06:33;59.58;;;25.10;;
21198;SDS011;10757;51.038;3.712;2022-12-18T03:09:12;54.17;;;23.30;;
21198;SDS011;10757;51.038;3.712;2022-12-18T03:11:46;47.92;;;20.15;;
21198;SDS011;10757;51.038;3.712;2022-12-18T03:14:37;60.30;;;25.08;;
21198;SDS011;10757;51.038;3.712;2022-12-18T03:17:05;52.00;;;24.50;;
21198;SDS011;10757;51.038;3.712;2022-12-18T03:19:38;62.70;;;24.58;;
21198;SDS011;10757;51.038;3.712;2022-12-18T03:22:07;54.15;;;23.40;;
21198;SDS011;10757;51.038;3.712;2022-12-18T03:24:33;61.13;;;27.35;;
21198;SDS011;10757;51.038;3.712;2022-12-18T03:27:02;54.30;;;23.33;;
21198;SDS011;10757;51.038;3.712;2022-12-18T03:29:35;54.08;;;22.27;;
21198;SDS011;10757;51.038;3.712;2022-12-18T03:32:09;50.33;;;20.52;;
21198;SDS011;10757;51.038;3.712;2022-12-18T03:34:38;50.95;;;24.42;;
21198;SDS011;10757;51.038;3.712;2022-12-18T03:37:06;54.88;;;24.70;;
21198;SDS011;10757;51.038;3.712;2022-12-18T03:39:32;54.30;;;22.45;;
21198;SDS011;10757;51.038;3.712;2022-12-18T03:42:07;60.20;;;21.23;;
21198;SDS011;10757;51.038;3.712;2022-12-18T03:47:16;55.00;;;21.55;;
21198;SDS011;10757;51.038;3.712;2022-12-18T03:49:53;59.10;;;22.40;;
21198;SDS011;10757;51.038;3.712;2022-12-18T03:52:38;56.10;;;23.25;;
21198;SDS011;10757;51.038;3.712;2022-12-18T03:55:15;48.67;;;21.95;;
21198;SDS011;10757;51.038;3.712;2022-12-18T03:57:42;51.17;;;21.35;;
21198;SDS011;10757;51.038;3.712;2022-12-18T04:00:10;52.88;;;20.60;;
21198;SDS011;10757;51.038;3.712;2022-12-18T04:02:39;51.92;;;21.25;;
21198;SDS011;10757;51.038;3.712;2022-12-18T04:05:08;43.65;;;21.65;;
21198;SDS011;10757;51.038;3.712;2022-12-18T04:07:36;61.60;;;24.30;;
21198;SDS011;10757;51.038;3.712;2022-12-18T04:10:04;55.85;;;23.40;;
21198;SDS011;10757;51.038;3.712;2022-12-18T04:12:32;52.70;;;21.80;;
21198;SDS011;10757;51.038;3.712;2022-12-18T04:14:58;51.75;;;24.77;;
21198;SDS011;10757;51.038;3.712;2022-12-18T04:17:24;51.97;;;22.75;;
21198;SDS011;10757;51.038;3.712;2022-12-18T04:19:50;45.38;;;19.65;;
21198;SDS011;10757;51.038;3.712;2022-12-18T04:22:16;54.20;;;23.33;;
21198;SDS011;10757;51.038;3.712;2022-12-18T04:24:41;46.92;;;17.70;;
21198;SDS011;10757;51.038;3.712;2022-12-18T04:27:07;51.53;;;23.25;;
21198;SDS011;10757;51.038;3.712;2022-12-18T04:29:33;45.78;;;19.88;;
21198;SDS011;10757;51.038;3.712;2022-12-18T04:31:59;46.40;;;20.33;;
21198;SDS011;10757;51.038;3.712;2022-12-18T04:34:24;51.30;;;22.67;;
21198;SDS011;10757;51.038;3.712;2022-12-18T04:36:50;52.47;;;21.30;;
21198;SDS011;10757;51.038;3.712;2022-12-18T04:39:16;49.38;;;21.48;;
21198;SDS011;10757;51.038;3.712;2022-12-18T04:41:41;37.95;;;17.10;;
21198;SDS011;10757;51.038;3.712;2022-12-18T04:44:07;49.10;;;22.75;;
21198;SDS011;10757;51.038;3.712;2022-12-18T04:46:33;56.13;;;23.10;;
21198;SDS011;10757;51.038;3.712;2022-12-18T04:48:59;48.30;;;21.10;;
21198;SDS011;10757;51.038;3.712;2022-12-18T04:51:24;54.53;;;23.85;;
21198;SDS011;10757;51.038;3.712;2022-12-18T04:53:50;48.85;;;21.13;;
21198;SDS011;10757;51.038;3.712;2022-12-18T04:56:16;51.25;;;21.92;;
21198;SDS011;10757;51.038;3.712;2022-12-18T04:58:42;46.42;;;19.75;;
21198;SDS011;10757;51.038;3.712;2022-12-18T05:01:09;50.17;;;20.58;;
21198;SDS011;10757;51.038;3.712;2022-12-18T05:03:36;47.95;;;20.88;;
21198;SDS011;10757;51.038;3.712;2022-12-18T05:06:02;52.92;;;23.52;;
21198;SDS011;10757;51.038;3.712;2022-12-18T05:08:29;39.35;;;18.42;;
21198;SDS011;10757;51.038;3.712;2022-12-18T05:11:14;47.17;;;20.52;;
21198;SDS011;10757;51.038;3.712;2022-12-18T05:13:41;41.08;;;17.98;;
21198;SDS011;10757;51.038;3.712;2022-12-18T05:16:07;38.90;;;18.10;;
21198;SDS011;10757;51.038;3.712;2022-12-18T05:18:33;43.05;;;21.27;;
21198;SDS011;10757;51.038;3.712;2022-12-18T05:20:59;46.92;;;20.88;;
21198;SDS011;10757;51.038;3.712;2022-12-18T05:23:25;45.38;;;20.45;;
21198;SDS011;10757;51.038;3.712;2022-12-18T05:25:55;47.85;;;22.98;;
21198;SDS011;10757;51.038;3.712;2022-12-18T05:28:24;42.47;;;19.70;;
21198;SDS011;10757;51.038;3.712;2022-12-18T05:30:52;44.13;;;17.85;;
21198;SDS011;10757;51.038;3.712;2022-12-18T05:33:20;43.08;;;18.80;;
21198;SDS011;10757;51.038;3.712;2022-12-18T05:35:50;44.53;;;20.17;;
21198;SDS011;10757;51.038;3.712;2022-12-18T05:38:16;42.72;;;18.60;;
21198;SDS011;10757;51.038;3.712;2022-12-18T05:40:42;43.70;;;19.77;;
21198;SDS011;10757;51.038;3.712;2022-12-18T05:43:08;44.30;;;19.08;;
21198;SDS011;10757;51.038;3.712;2022-12-18T05:45:36;45.70;;;19.73;;
21198;SDS011;10757;51.038;3.712;2022-12-18T05:48:03;46.33;;;18.88;;
21198;SDS011;10757;51.038;3.712;2022-12-18T05:50:30;47.90;;;19.33;;
21198;SDS011;10757;51.038;3.712;2022-12-18T05:52:55;50.00;;;20.40;;
21198;SDS011;10757;51.038;3.712;2022-12-18T05:55:21;43.22;;;19.08;;
21198;SDS011;10757;51.038;3.712;2022-12-18T05:57:47;36.08;;;17.27;;
21198;SDS011;10757;51.038;3.712;2022-12-18T06:00:12;38.17;;;19.17;;
21198;SDS011;10757;51.038;3.712;2022-12-18T06:02:38;37.53;;;16.42;;
21198;SDS011;10757;51.038;3.712;2022-12-18T06:05:04;43.97;;;19.73;;
21198;SDS011;10757;51.038;3.712;2022-12-18T06:07:30;35.10;;;15.50;;
21198;SDS011;10757;51.038;3.712;2022-12-18T06:09:56;39.63;;;18.83;;
21198;SDS011;10757;51.038;3.712;2022-12-18T06:12:21;41.17;;;16.95;;
21198;SDS011;10757;51.038;3.712;2022-12-18T06:14:47;39.85;;;18.23;;
21198;SDS011;10757;51.038;3.712;2022-12-18T06:17:13;44.58;;;18.95;;
21198;SDS011;10757;51.038;3.712;2022-12-18T06:19:39;40.70;;;19.45;;
21198;SDS011;10757;51.038;3.712;2022-12-18T06:22:04;43.55;;;18.98;;
21198;SDS011;10757;51.038;3.712;2022-12-18T06:24:30;41.83;;;18.80;;
21198;SDS011;10757;51.038;3.712;2022-12-18T06:26:56;40.05;;;17.25;;
21198;SDS011;10757;51.038;3.712;2022-12-18T06:29:21;40.78;;;17.88;;
21198;SDS011;10757;51.038;3.712;2022-12-18T06:31:47;41.72;;;18.00;;
21198;SDS011;10757;51.038;3.712;2022-12-18T06:34:13;34.35;;;15.20;;
21198;SDS011;10757;51.038;3.712;2022-12-18T06:36:38;36.40;;;17.50;;
21198;SDS011;10757;51.038;3.712;2022-12-18T06:39:04;37.63;;;18.42;;
21198;SDS011;10757;51.038;3.712;2022-12-18T06:41:30;34.42;;;17.00;;
21198;SDS011;10757;51.038;3.712;2022-12-18T06:43:57;36.45;;;15.90;;
21198;SDS011;10757;51.038;3.712;2022-12-18T06:46:22;35.30;;;17.30;;
21198;SDS011;10757;51.038;3.712;2022-12-18T06:48:48;29.48;;;14.82;;
21198;SDS011;10757;51.038;3.712;2022-12-18T06:51:16;39.65;;;15.75;;
21198;SDS011;10757;51.038;3.712;2022-12-18T06:53:45;28.23;;;11.18;;
21198;SDS011;10757;51.038;3.712;2022-12-18T06:56:11;36.28;;;17.27;;
21198;SDS011;10757;51.038;3.712;2022-12-18T06:58:37;32.65;;;15.50;;
21198;SDS011;10757;51.038;3.712;2022-12-18T07:01:04;32.65;;;15.98;;
21198;SDS011;10757;51.038;3.712;2022-12-18T07:03:32;27.88;;;13.07;;
21198;SDS011;10757;51.038;3.712;2022-12-18T07:05:58;30.58;;;15.30;;
21198;SDS011;10757;51.038;3.712;2022-12-18T07:08:24;36.03;;;16.83;;
21198;SDS011;10757;51.038;3.712;2022-12-18T07:10:50;28.30;;;14.52;;
21198;SDS011;10757;51.038;3.712;2022-12-18T07:13:16;36.83;;;16.35;;
21198;SDS011;10757;51.038;3.712;2022-12-18T07:15:42;30.70;;;14.65;;
21198;SDS011;10757;51.038;3.712;2022-12-18T07:18:10;36.22;;;15.73;;
21198;SDS011;10757;51.038;3.712;2022-12-18T07:20:36;26.30;;;11.93;;
21198;SDS011;10757;51.038;3.712;2022-12-18T07:23:02;29.88;;;13.70;;
21198;SDS011;10757;51.038;3.712;2022-12-18T07:25:28;31.58;;;14.82;;
21198;SDS011;10757;51.038;3.712;2022-12-18T07:27:57;31.98;;;15.00;;
21198;SDS011;10757;51.038;3.712;2022-12-18T07:30:23;31.98;;;15.90;;
21198;SDS011;10757;51.038;3.712;2022-12-18T07:32:49;29.77;;;15.45;;
21198;SDS011;10757;51.038;3.712;2022-12-18T07:35:14;32.55;;;15.82;;
21198;SDS011;10757;51.038;3.712;2022-12-18T07:37:40;35.13;;;16.38;;
21198;SDS011;10757;51.038;3.712;2022-12-18T07:40:06;27.27;;;13.68;;
21198;SDS011;10757;51.038;3.712;2022-12-18T07:42:32;30.92;;;13.65;;
21198;SDS011;10757;51.038;3.712;2022-12-18T07:44:58;30.50;;;13.35;;
21198;SDS011;10757;51.038;3.712;2022-12-18T07:47:24;29.30;;;14.52;;
21198;SDS011;10757;51.038;3.712;2022-12-18T07:49:50;28.90;;;14.02;;
21198;SDS011;10757;51.038;3.712;2022-12-18T07:52:17;29.45;;;14.02;;
21198;SDS011;10757;51.038;3.712;2022-12-18T07:54:43;29.48;;;13.55;;
21198;SDS011;10757;51.038;3.712;2022-12-18T07:57:09;25.20;;;13.20;;
21198;SDS011;10757;51.038;3.712;2022-12-18T07:59:34;20.17;;;9.45;;
21198;SDS011;10757;51.038;3.712;2022-12-18T08:02:00;28.67;;;12.63;;
21198;SDS011;10757;51.038;3.712;2022-12-18T08:04:26;34.63;;;13.77;;
21198;SDS011;10757;51.038;3.712;2022-12-18T08:06:52;29.17;;;15.10;;
21198;SDS011;10757;51.038;3.712;2022-12-18T08:09:18;21.27;;;12.52;;
21198;SDS011;10757;51.038;3.712;2022-12-18T08:11:43;33.22;;;12.48;;
21198;SDS011;10757;51.038;3.712;2022-12-18T08:14:09;26.75;;;11.80;;
21198;SDS011;10757;51.038;3.712;2022-12-18T08:16:35;28.27;;;13.18;;
21198;SDS011;10757;51.038;3.712;2022-12-18T08:19:01;23.92;;;13.63;;
21198;SDS011;10757;51.038;3.712;2022-12-18T08:21:28;28.98;;;12.45;;
21198;SDS011;10757;51.038;3.712;2022-12-18T08:23:56;25.77;;;12.63;;
21198;SDS011;10757;51.038;3.712;2022-12-18T08:26:24;26.52;;;12.68;;
21198;SDS011;10757;51.038;3.712;2022-12-18T08:28:52;25.42;;;12.63;;
21198;SDS011;10757;51.038;3.712;2022-12-18T08:31:23;23.17;;;12.70;;
21198;SDS011;10757;51.038;3.712;2022-12-18T08:33:50;26.70;;;14.18;;
21198;SDS011;10757;51.038;3.712;2022-12-18T08:36:17;23.92;;;13.35;;
21198;SDS011;10757;51.038;3.712;2022-12-18T08:38:43;28.52;;;12.20;;
21198;SDS011;10757;51.038;3.712;2022-12-18T08:41:10;27.65;;;12.65;;
21198;SDS011;10757;51.038;3.712;2022-12-18T08:43:37;27.33;;;13.75;;
21198;SDS011;10757;51.038;3.712;2022-12-18T08:46:22;27.48;;;13.25;;
21198;SDS011;10757;51.038;3.712;2022-12-18T08:48:50;26.48;;;13.68;;
21198;SDS011;10757;51.038;3.712;2022-12-18T08:51:18;29.70;;;16.05;;
21198;SDS011;10757;51.038;3.712;2022-12-18T08:53:45;24.83;;;13.95;;
21198;SDS011;10757;51.038;3.712;2022-12-18T08:56:11;29.08;;;15.13;;
21198;SDS011;10757;51.038;3.712;2022-12-18T08:58:38;30.88;;;14.35;;
21198;SDS011;10757;51.038;3.712;2022-12-18T09:01:08;27.80;;;13.38;;
21198;SDS011;10757;51.038;3.712;2022-12-18T09:03:36;21.60;;;10.52;;
21198;SDS011;10757;51.038;3.712;2022-12-18T09:06:02;34.35;;;13.85;;
21198;SDS011;10757;51.038;3.712;2022-12-18T09:08:28;30.10;;;14.82;;
21198;SDS011;10757;51.038;3.712;2022-12-18T09:10:54;36.25;;;15.15;;
21198;SDS011;10757;51.038;3.712;2022-12-18T09:13:20;29.10;;;14.75;;
21198;SDS011;10757;51.038;3.712;2022-12-18T09:15:49;24.77;;;12.63;;
21198;SDS011;10757;51.038;3.712;2022-12-18T09:18:17;25.75;;;12.35;;
21198;SDS011;10757;51.038;3.712;2022-12-18T09:20:45;23.80;;;13.32;;
21198;SDS011;10757;51.038;3.712;2022-12-18T09:23:11;26.35;;;11.68;;
21198;SDS011;10757;51.038;3.712;2022-12-18T09:25:37;27.17;;;13.80;;
21198;SDS011;10757;51.038;3.712;2022-12-18T09:28:04;26.13;;;13.23;;
21198;SDS011;10757;51.038;3.712;2022-12-18T09:30:32;28.95;;;14.65;;
21198;SDS011;10757;51.038;3.712;2022-12-18T09:32:59;27.50;;;13.65;;
21198;SDS011;10757;51.038;3.712;2022-12-18T09:35:25;27.13;;;13.05;;
21198;SDS011;10757;51.038;3.712;2022-12-18T09:37:52;28.67;;;13.15;;
21198;SDS011;10757;51.038;3.712;2022-12-18T09:40:19;30.95;;;13.90;;
21198;SDS011;10757;51.038;3.712;2022-12-18T09:42:50;24.45;;;12.75;;
21198;SDS011;10757;51.038;3.712;2022-12-18T09:45:20;27.25;;;13.48;;
21198;SDS011;10757;51.038;3.712;2022-12-18T09:47:47;30.52;;;15.10;;
21198;SDS011;10757;51.038;3.712;2022-12-18T09:50:33;25.08;;;12.80;;
21198;SDS011;10757;51.038;3.712;2022-12-18T09:53:06;28.38;;;13.95;;
21198;SDS011;10757;51.038;3.712;2022-12-18T09:55:41;26.48;;;14.23;;
21198;SDS011;10757;51.038;3.712;2022-12-18T10:00:41;30.73;;;14.65;;
21198;SDS011;10757;51.038;3.712;2022-12-18T10:03:08;33.72;;;15.35;;
21198;SDS011;10757;51.038;3.712;2022-12-18T10:06:10;27.70;;;13.50;;
21198;SDS011;10757;51.038;3.712;2022-12-18T10:08:40;28.25;;;13.60;;
21198;SDS011;10757;51.038;3.712;2022-12-18T10:19:56;23.95;;;12.93;;
21198;SDS011;10757;51.038;3.712;2022-12-18T10:25:15;30.20;;;14.32;;
21198;SDS011;10757;51.038;3.712;2022-12-18T10:27:46;26.48;;;12.80;;
21198;SDS011;10757;51.038;3.712;2022-12-18T10:30:12;27.45;;;13.90;;
21198;SDS011;10757;51.038;3.712;2022-12-18T10:32:39;27.65;;;14.02;;
21198;SDS011;10757;51.038;3.712;2022-12-18T10:35:07;28.52;;;14.15;;
21198;SDS011;10757;51.038;3.712;2022-12-18T10:37:58;29.95;;;14.82;;
21198;SDS011;10757;51.038;3.712;2022-12-18T10:40:55;26.13;;;13.77;;
21198;SDS011;10757;51.038;3.712;2022-12-18T10:43:30;24.75;;;11.20;;
21198;SDS011;10757;51.038;3.712;2022-12-18T10:48:36;56.20;;;27.38;;
21198;SDS011;10757;51.038;3.712;2022-12-18T10:51:18;32.05;;;15.55;;
21198;SDS011;10757;51.038;3.712;2022-12-18T10:56:23;30.67;;;15.65;;
21198;SDS011;10757;51.038;3.712;2022-12-18T10:59:07;24.45;;;13.35;;
21198;SDS011;10757;51.038;3.712;2022-12-18T11:01:54;22.52;;;13.13;;
21198;SDS011;10757;51.038;3.712;2022-12-18T11:04:23;23.67;;;12.25;;
21198;SDS011;10757;51.038;3.712;2022-12-18T11:06:54;25.88;;;14.32;;
21198;SDS011;10757;51.038;3.712;2022-12-18T11:09:25;23.75;;;13.38;;
21198;SDS011;10757;51.038;3.712;2022-12-18T11:11:57;24.92;;;12.23;;
21198;SDS011;10757;51.038;3.712;2022-12-18T11:14:42;25.40;;;15.52;;
21198;SDS011;10757;51.038;3.712;2022-12-18T11:17:18;26.75;;;13.65;;
21198;SDS011;10757;51.038;3.712;2022-12-18T11:19:58;23.20;;;12.73;;
21198;SDS011;10757;51.038;3.712;2022-12-18T11:22:34;27.92;;;14.68;;
21198;SDS011;10757;51.038;3.712;2022-12-18T11:27:41;24.92;;;14.63;;
21198;SDS011;10757;51.038;3.712;2022-12-18T11:30:22;22.38;;;12.27;;
21198;SDS011;10757;51.038;3.712;2022-12-18T11:32:49;26.83;;;15.13;;
21198;SDS011;10757;51.038;3.712;2022-12-18T11:38:27;27.77;;;15.23;;
21198;SDS011;10757;51.038;3.712;2022-12-18T11:41:04;29.63;;;14.13;;
21198;SDS011;10757;51.038;3.712;2022-12-18T11:43:37;22.30;;;12.40;;
21198;SDS011;10757;51.038;3.712;2022-12-18T11:46:13;26.75;;;13.77;;
21198;SDS011;10757;51.038;3.712;2022-12-18T11:48:52;25.25;;;12.98;;
21198;SDS011;10757;51.038;3.712;2022-12-18T11:51:47;27.35;;;13.90;;
21198;SDS011;10757;51.038;3.712;2022-12-18T11:54:14;25.48;;;13.82;;
21198;SDS011;10757;51.038;3.712;2022-12-18T11:56:51;24.35;;;12.43;;
21198;SDS011;10757;51.038;3.712;2022-12-18T12:07:32;26.77;;;14.93;;
21198;SDS011;10757;51.038;3.712;2022-12-18T12:18:52;24.52;;;13.68;;
21198;SDS011;10757;51.038;3.712;2022-12-18T12:21:40;25.40;;;12.30;;
21198;SDS011;10757;51.038;3.712;2022-12-18T12:24:22;28.98;;;14.27;;
21198;SDS011;10757;51.038;3.712;2022-12-18T12:26:52;24.77;;;12.27;;
21198;SDS011;10757;51.038;3.712;2022-12-18T12:40:14;25.83;;;14.57;;
21198;SDS011;10757;51.038;3.712;2022-12-18T12:42:44;28.85;;;14.60;;
21198;SDS011;10757;51.038;3.712;2022-12-18T12:45:37;25.92;;;14.13;;
21198;SDS011;10757;51.038;3.712;2022-12-18T12:48:05;22.40;;;13.02;;
21198;SDS011;10757;51.038;3.712;2022-12-18T12:50:38;27.02;;;14.27;;
21198;SDS011;10757;51.038;3.712;2022-12-18T12:53:06;29.75;;;15.57;;
21198;SDS011;10757;51.038;3.712;2022-12-18T12:55:38;28.02;;;14.88;;
21198;SDS011;10757;51.038;3.712;2022-12-18T12:58:07;26.90;;;13.73;;
21198;SDS011;10757;51.038;3.712;2022-12-18T13:00:56;33.90;;;17.90;;
21198;SDS011;10757;51.038;3.712;2022-12-18T13:06:44;27.30;;;14.77;;
21198;SDS011;10757;51.038;3.712;2022-12-18T13:09:32;32.25;;;17.13;;
21198;SDS011;10757;51.038;3.712;2022-12-18T13:12:18;30.15;;;15.60;;
21198;SDS011;10757;51.038;3.712;2022-12-18T13:15:11;30.45;;;15.95;;
21198;SDS011;10757;51.038;3.712;2022-12-18T13:17:48;32.78;;;18.15;;
21198;SDS011;10757;51.038;3.712;2022-12-18T13:20:14;37.67;;;18.17;;
21198;SDS011;10757;51.038;3.712;2022-12-18T13:22:47;37.97;;;18.50;;
21198;SDS011;10757;51.038;3.712;2022-12-18T13:25:31;36.90;;;17.90;;
21198;SDS011;10757;51.038;3.712;2022-12-18T13:28:00;37.47;;;19.33;;
21198;SDS011;10757;51.038;3.712;2022-12-18T13:38:23;39.38;;;20.98;;
21198;SDS011;10757;51.038;3.712;2022-12-18T13:40:59;33.58;;;18.58;;
21198;SDS011;10757;51.038;3.712;2022-12-18T13:43:27;35.03;;;18.05;;
21198;SDS011;10757;51.038;3.712;2022-12-18T13:51:39;33.00;;;16.92;;
21198;SDS011;10757;51.038;3.712;2022-12-18T13:57:00;39.80;;;19.95;;
21198;SDS011;10757;51.038;3.712;2022-12-18T13:59:34;40.47;;;20.40;;
21198;SDS011;10757;51.038;3.712;2022-12-18T14:02:23;29.48;;;15.25;;
21198;SDS011;10757;51.038;3.712;2022-12-18T14:04:51;27.13;;;15.80;;
21198;SDS011;10757;51.038;3.712;2022-12-18T14:07:21;33.20;;;17.00;;
21198;SDS011;10757;51.038;3.712;2022-12-18T14:09:50;33.90;;;18.70;;
21198;SDS011;10757;51.038;3.712;2022-12-18T14:12:30;35.75;;;18.02;;
21198;SDS011;10757;51.038;3.712;2022-12-18T14:18:00;39.22;;;17.70;;
21198;SDS011;10757;51.038;3.712;2022-12-18T14:20:43;36.72;;;18.35;;
21198;SDS011;10757;51.038;3.712;2022-12-18T14:23:31;40.88;;;20.70;;
21198;SDS011;10757;51.038;3.712;2022-12-18T14:26:00;37.00;;;16.90;;
21198;SDS011;10757;51.038;3.712;2022-12-18T14:28:45;48.70;;;20.63;;
21198;SDS011;10757;51.038;3.712;2022-12-18T14:31:24;38.35;;;18.13;;
21198;SDS011;10757;51.038;3.712;2022-12-18T14:33:51;30.90;;;15.90;;
21198;SDS011;10757;51.038;3.712;2022-12-18T14:36:19;35.30;;;16.85;;
21198;SDS011;10757;51.038;3.712;2022-12-18T14:38:48;42.58;;;21.05;;
21198;SDS011;10757;51.038;3.712;2022-12-18T14:41:18;42.15;;;19.98;;
21198;SDS011;10757;51.038;3.712;2022-12-18T14:43:46;41.38;;;20.08;;
21198;SDS011;10757;51.038;3.712;2022-12-18T14:49:01;31.10;;;13.73;;
21198;SDS011;10757;51.038;3.712;2022-12-18T14:51:47;39.90;;;20.05;;
21198;SDS011;10757;51.038;3.712;2022-12-18T14:54:20;32.63;;;16.00;;
21198;SDS011;10757;51.038;3.712;2022-12-18T14:56:48;38.17;;;19.55;;
21198;SDS011;10757;51.038;3.712;2022-12-18T14:59:25;40.90;;;20.70;;
21198;SDS011;10757;51.038;3.712;2022-12-18T15:07:18;42.08;;;19.80;;
21198;SDS011;10757;51.038;3.712;2022-12-18T15:15:05;33.83;;;17.27;;
21198;SDS011;10757;51.038;3.712;2022-12-18T15:20:41;37.42;;;19.35;;
21198;SDS011;10757;51.038;3.712;2022-12-18T15:23:24;37.78;;;18.48;;
21198;SDS011;10757;51.038;3.712;2022-12-18T15:26:18;42.15;;;20.23;;
21198;SDS011;10757;51.038;3.712;2022-12-18T15:28:55;41.22;;;20.58;;
21198;SDS011;10757;51.038;3.712;2022-12-18T15:31:30;31.27;;;16.75;;
21198;SDS011;10757;51.038;3.712;2022-12-18T15:36:24;38.33;;;16.88;;
21198;SDS011;10757;51.038;3.712;2022-12-18T15:38:50;47.22;;;20.90;;
21198;SDS011;10757;51.038;3.712;2022-12-18T15:41:18;39.88;;;19.83;;
21198;SDS011;10757;51.038;3.712;2022-12-18T15:43:46;44.50;;;20.33;;
21198;SDS011;10757;51.038;3.712;2022-12-18T15:46:14;43.03;;;21.73;;
21198;SDS011;10757;51.038;3.712;2022-12-18T15:48:43;41.63;;;19.15;;
21198;SDS011;10757;51.038;3.712;2022-12-18T15:53:41;45.53;;;20.45;;
21198;SDS011;10757;51.038;3.712;2022-12-18T15:56:11;43.90;;;20.08;;
21198;SDS011;10757;51.038;3.712;2022-12-18T15:58:57;35.42;;;18.80;;
21198;SDS011;10757;51.038;3.712;2022-12-18T16:01:24;44.13;;;20.70;;
21198;SDS011;10757;51.038;3.712;2022-12-18T16:03:55;40.03;;;19.98;;
21198;SDS011;10757;51.038;3.712;2022-12-18T16:06:24;36.03;;;18.05;;
21198;SDS011;10757;51.038;3.712;2022-12-18T16:08:49;40.70;;;20.45;;
21198;SDS011;10757;51.038;3.712;2022-12-18T16:14:04;34.83;;;15.60;;
21198;SDS011;10757;51.038;3.712;2022-12-18T16:16:31;41.20;;;20.80;;
21198;SDS011;10757;51.038;3.712;2022-12-18T16:18:56;38.35;;;17.35;;
21198;SDS011;10757;51.038;3.712;2022-12-18T16:21:22;34.08;;;17.05;;
21198;SDS011;10757;51.038;3.712;2022-12-18T16:23:48;42.95;;;20.33;;
21198;SDS011;10757;51.038;3.712;2022-12-18T16:26:13;36.97;;;17.95;;
21198;SDS011;10757;51.038;3.712;2022-12-18T16:28:39;42.78;;;19.15;;
21198;SDS011;10757;51.038;3.712;2022-12-18T16:31:05;44.55;;;20.02;;
21198;SDS011;10757;51.038;3.712;2022-12-18T16:33:30;45.03;;;20.95;;
21198;SDS011;10757;51.038;3.712;2022-12-18T16:35:56;37.83;;;18.73;;
21198;SDS011;10757;51.038;3.712;2022-12-18T16:38:22;44.97;;;18.67;;
21198;SDS011;10757;51.038;3.712;2022-12-18T16:40:47;41.67;;;17.30;;
21198;SDS011;10757;51.038;3.712;2022-12-18T16:43:32;43.05;;;19.83;;
21198;SDS011;10757;51.038;3.712;2022-12-18T16:45:58;43.80;;;21.17;;
21198;SDS011;10757;51.038;3.712;2022-12-18T16:48:24;41.35;;;20.00;;
21198;SDS011;10757;51.038;3.712;2022-12-18T16:50:49;36.47;;;16.45;;
21198;SDS011;10757;51.038;3.712;2022-12-18T16:53:24;37.72;;;17.35;;
21198;SDS011;10757;51.038;3.712;2022-12-18T16:55:53;38.85;;;17.63;;